Galena, Nevada Weather observations

Data are for 10 minute period ending at time listed.
 Day   Time    Ave.   Ave.  Ave.  Vector   Max.   Total    Solar   
  of    of     Air    Rel.  Wind   Wind    Wind  Precip.   Rad.    
Year   Day     Temp.  Hum.  Speed  Dir.    Gust                    
2015   (PST)    F      %     mph   deg.    mph     in.     W/m2    
------------------------------------------------------------------- 
  89   18:00   63.0    13   15.0   239     34.0   10.72      63  
  89   19:00   63.0    15   14.0   239     36.0   10.72       6  
  89   20:00   61.0    17   13.0   201     36.0   10.72       0  
  89   21:00   59.0    25    5.0   134     26.0   10.72       0  
  89   22:00   56.0    29    4.0    28     12.0   10.72       0  
  89   23:00   53.0    33    4.0   272      8.0   10.72       0  
  90    0:00   53.0    27    6.0   190     11.0   10.72       0  
  90    1:00   53.0    25    7.0   166     16.0   10.72       0  
  90    2:00   51.0    31   12.0   139     24.0   10.72       0  
  90    3:00   52.0    31    9.0   157     30.0   10.72       0  
  90    4:00   48.0    30    5.0   107     18.0   10.72       0  
  90    5:00   48.0    29   10.0   128     28.0   10.72       0  
  90    6:00   46.0    23    4.0    78     18.0   10.72       0  
  90    7:00   54.0    13    7.0   185     20.0   10.72      70  
  90    8:00   59.0    12    5.0    56     20.0   10.72     278  
  90    9:00   58.0    11   13.0   237     26.0   10.72     488  
  90   10:00   59.0     8   14.0   217     38.0   10.72     674  
  90   11:00   60.0    10   17.0   230     35.0   10.72     819  
  90   12:00   60.0    12   19.0   225     39.0   10.72     901  
  90   13:00   58.0     8   24.0   252     48.0   10.72     924  
  90   14:00   60.0     9   26.0   243     52.0   10.72     874  
  90   15:00   57.0     8   31.0   309     54.0   10.72     755  
  90   16:00   55.0     8   31.0   247     59.0   10.72     588  
  90   17:00   54.0    23   15.0   249     53.0    0.00     377  

Return to Galena, Nevada graphs page.


Western Regional Climate Center,wrcc@dri.edu